Great Falls, MT (59404)

10:34 AM MDT on March 30, 2015 (GMT -0600)
APRSWXNET Great Falls MT US | | Change Station
CLOSE
Current Station
Personal Weather Station
Location: Black Eagle, MT
Elevation: 3354 ft
Nearby Weather Stations

Elev 3354 ft 47.52 °N, 111.32 °W | Updated 39 minutes ago

Mostly Cloudy
Mostly Cloudy
57 °F
Feels Like 57 °F
N
11
Wind Variable Wind from WSW
Gusts 15.0 mph

Today
High -- | Low -- °F
--% Chance of Precip.
Yesterday
High -- | Low -- °F
Precip. -- in
7:08 AM 7:52 PM
Waxing Gibbous, 80% visible
Pressure 30.06 in
Visibility 10.0 miles
Clouds Mostly Cloudy 11000 ft
Dew Point 30 °F
Humidity 36%
Rainfall in
Snow Depth Not available.
UV 1 out of 12
Pollen 9.00 out of 12
Air Quality Not available.
Flu Activity Not available.
METAR KGTF 301553Z 22013KT 10SM BKN110 14/M02 A3007 RMK AO2 SLP180 T01391022

More Conditions Fewer Conditions

Pressure 30.06 in
Visibility 10.0 miles
Clouds Mostly Cloudy 11000 ft
Dew Point 30 °F
Humidity 36%
Rainfall in
Snow Depth Not available.
UV 1 out of 12
Pollen 9.00 out of 12
Air Quality Not available.
Flu Activity Not available.
METAR KGTF 301553Z 22013KT 10SM BKN110 14/M02 A3007 RMK AO2 SLP180 T01391022

More Conditions Fewer Conditions

10-Day Weather Forecast

Almanac

Astronomy

Mar. 30, 2015 Rise Set
Actual Time
Civil Twilight
Nautical Twilight
Astronomical Twilight
Moon
Length of Visible Light
Length of Day
Tomorrow will be .
, % of the Moon is Illuminated

Today's Extremes

State Highs State Lows

Community

WunderPhotos

Upload Photos

1,809,533 photos uploaded!

WunderBlogs® & News

Nearby

Air Quality

  Air Quality AQ Index Pollutant
Not available.

Snow Depth

Station Depth Elevation

Earthquake Activity

City Distance Mag. Time & Date
Minimum magnitude displayed is 2.5.

Coastal Water Temperatures

Place Temperature

Stations

Nearby Weather Stations

Station Location Temp. Windchill Dew Point Humidity Wind Precip. Elev Updated Type